sensor_id;sensor_type;location;lat;lon;timestamp;pressure;altitude;pressure_sealevel;temperature;humidity
37291;BME280;23175;-33.706;151.094;2024-01-30T00:00:57;99672.17;;;23.39;59.84
37291;BME280;23175;-33.706;151.094;2024-01-30T00:03:27;99675.10;;;21.20;63.65
37291;BME280;23175;-33.706;151.094;2024-01-30T00:05:56;99673.92;;;22.10;61.73
37291;BME280;23175;-33.706;151.094;2024-01-30T00:08:26;99675.72;;;22.72;59.88
37291;BME280;23175;-33.706;151.094;2024-01-30T00:10:56;99679.38;;;20.59;64.80
37291;BME280;23175;-33.706;151.094;2024-01-30T00:13:26;99677.13;;;20.92;65.04
37291;BME280;23175;-33.706;151.094;2024-01-30T00:15:56;99672.11;;;20.31;66.69
37291;BME280;23175;-33.706;151.094;2024-01-30T00:18:26;99680.68;;;21.79;63.42
37291;BME280;23175;-33.706;151.094;2024-01-30T00:20:56;99682.70;;;21.76;62.96
37291;BME280;23175;-33.706;151.094;2024-01-30T00:23:26;99680.59;;;18.30;70.04
37291;BME280;23175;-33.706;151.094;2024-01-30T00:25:56;99682.80;;;20.31;66.67
37291;BME280;23175;-33.706;151.094;2024-01-30T00:28:26;99680.31;;;20.78;65.41
37291;BME280;23175;-33.706;151.094;2024-01-30T00:30:57;99683.66;;;22.45;61.83
37291;BME280;23175;-33.706;151.094;2024-01-30T00:33:27;99686.92;;;19.94;67.69
37291;BME280;23175;-33.706;151.094;2024-01-30T00:35:56;99689.01;;;20.89;65.96
37291;BME280;23175;-33.706;151.094;2024-01-30T00:38:26;99689.87;;;20.54;66.64
37291;BME280;23175;-33.706;151.094;2024-01-30T00:40:56;99693.83;;;21.61;65.37
37291;BME280;23175;-33.706;151.094;2024-01-30T00:43:26;99696.27;;;21.33;65.56
37291;BME280;23175;-33.706;151.094;2024-01-30T00:45:56;99694.82;;;22.86;62.41
37291;BME280;23175;-33.706;151.094;2024-01-30T00:48:26;99692.04;;;20.81;65.93
37291;BME280;23175;-33.706;151.094;2024-01-30T00:50:56;99689.30;;;23.46;60.36
37291;BME280;23175;-33.706;151.094;2024-01-30T00:53:27;99692.88;;;21.39;64.51
37291;BME280;23175;-33.706;151.094;2024-01-30T00:55:57;99689.72;;;20.19;65.41
37291;BME280;23175;-33.706;151.094;2024-01-30T00:58:27;99688.65;;;21.91;62.95
37291;BME280;23175;-33.706;151.094;2024-01-30T01:00:57;99682.74;;;20.44;66.69
37291;BME280;23175;-33.706;151.094;2024-01-30T01:03:27;99679.46;;;20.60;65.33
37291;BME280;23175;-33.706;151.094;2024-01-30T01:05:58;99681.59;;;18.97;68.46
37291;BME280;23175;-33.706;151.094;2024-01-30T01:08:28;99679.85;;;20.68;65.38
37291;BME280;23175;-33.706;151.094;2024-01-30T01:10:58;99681.41;;;19.32;68.60
37291;BME280;23175;-33.706;151.094;2024-01-30T01:13:28;99676.83;;;20.39;67.59
37291;BME280;23175;-33.706;151.094;2024-01-30T01:15:58;99674.06;;;19.83;69.05
37291;BME280;23175;-33.706;151.094;2024-01-30T01:18:28;99671.24;;;21.39;66.22
37291;BME280;23175;-33.706;151.094;2024-01-30T01:20:59;99666.86;;;19.99;66.38
37291;BME280;23175;-33.706;151.094;2024-01-30T01:23:28;99663.57;;;20.32;66.93
37291;BME280;23175;-33.706;151.094;2024-01-30T01:25:59;99667.26;;;21.08;64.59
37291;BME280;23175;-33.706;151.094;2024-01-30T01:28:29;99662.29;;;19.21;67.63
37291;BME280;23175;-33.706;151.094;2024-01-30T01:30:59;99665.97;;;20.76;63.29
37291;BME280;23175;-33.706;151.094;2024-01-30T01:33:29;99667.59;;;20.50;64.16
37291;BME280;23175;-33.706;151.094;2024-01-30T01:35:59;99667.82;;;20.09;63.57
37291;BME280;23175;-33.706;151.094;2024-01-30T01:38:30;99671.50;;;21.44;62.49
37291;BME280;23175;-33.706;151.094;2024-01-30T01:41:00;99670.11;;;19.07;68.42
37291;BME280;23175;-33.706;151.094;2024-01-30T01:43:30;99668.87;;;19.47;66.71
37291;BME280;23175;-33.706;151.094;2024-01-30T01:46:00;99669.64;;;20.70;63.35
37291;BME280;23175;-33.706;151.094;2024-01-30T01:48:30;99669.47;;;21.93;61.23
37291;BME280;23175;-33.706;151.094;2024-01-30T01:51:00;99666.05;;;20.01;64.33
37291;BME280;23175;-33.706;151.094;2024-01-30T01:53:31;99666.64;;;21.25;61.29
37291;BME280;23175;-33.706;151.094;2024-01-30T01:56:02;99662.18;;;22.67;59.12
37291;BME280;23175;-33.706;151.094;2024-01-30T01:58:32;99658.61;;;22.30;58.85
37291;BME280;23175;-33.706;151.094;2024-01-30T02:01:02;99652.49;;;23.52;57.05
37291;BME280;23175;-33.706;151.094;2024-01-30T02:03:34;99647.22;;;22.24;59.16
37291;BME280;23175;-33.706;151.094;2024-01-30T02:06:05;99644.63;;;19.90;63.31
37291;BME280;23175;-33.706;151.094;2024-01-30T02:08:35;99641.63;;;20.07;65.20
37291;BME280;23175;-33.706;151.094;2024-01-30T02:11:07;99636.44;;;21.90;60.22
37291;BME280;23175;-33.706;151.094;2024-01-30T02:13:37;99628.82;;;20.16;64.22
37291;BME280;23175;-33.706;151.094;2024-01-30T02:16:08;99632.95;;;21.74;62.88
37291;BME280;23175;-33.706;151.094;2024-01-30T02:18:37;99627.39;;;20.07;65.57
37291;BME280;23175;-33.706;151.094;2024-01-30T02:21:08;99617.32;;;19.84;64.41
37291;BME280;23175;-33.706;151.094;2024-01-30T02:23:39;99622.60;;;20.80;62.34
37291;BME280;23175;-33.706;151.094;2024-01-30T02:26:09;99630.10;;;21.13;62.32
37291;BME280;23175;-33.706;151.094;2024-01-30T02:28:39;99632.20;;;20.93;63.17
37291;BME280;23175;-33.706;151.094;2024-01-30T02:31:09;99627.15;;;20.39;63.36
37291;BME280;23175;-33.706;151.094;2024-01-30T02:33:39;99628.13;;;20.62;61.72
37291;BME280;23175;-33.706;151.094;2024-01-30T02:36:10;99623.20;;;19.86;64.67
37291;BME280;23175;-33.706;151.094;2024-01-30T02:38:40;99619.11;;;19.43;64.06
37291;BME280;23175;-33.706;151.094;2024-01-30T02:41:10;99617.16;;;20.50;63.31
37291;BME280;23175;-33.706;151.094;2024-01-30T02:43:40;99615.62;;;20.49;62.32
37291;BME280;23175;-33.706;151.094;2024-01-30T02:46:10;99619.08;;;20.88;60.48
37291;BME280;23175;-33.706;151.094;2024-01-30T02:48:40;99614.38;;;20.43;63.11
37291;BME280;23175;-33.706;151.094;2024-01-30T02:51:11;99616.89;;;22.27;58.33
37291;BME280;23175;-33.706;151.094;2024-01-30T02:53:45;99612.07;;;23.49;56.56
37291;BME280;23175;-33.706;151.094;2024-01-30T02:56:16;99609.27;;;23.14;56.07
37291;BME280;23175;-33.706;151.094;2024-01-30T02:58:46;99606.73;;;22.57;57.95
37291;BME280;23175;-33.706;151.094;2024-01-30T03:01:16;99607.39;;;23.81;54.35
37291;BME280;23175;-33.706;151.094;2024-01-30T03:03:47;99601.18;;;24.19;53.01
37291;BME280;23175;-33.706;151.094;2024-01-30T03:06:17;99596.95;;;21.98;56.22
37291;BME280;23175;-33.706;151.094;2024-01-30T03:08:46;99596.86;;;22.58;54.98
37291;BME280;23175;-33.706;151.094;2024-01-30T03:11:17;99598.96;;;22.67;55.61
37291;BME280;23175;-33.706;151.094;2024-01-30T03:13:47;99591.80;;;21.93;57.45
37291;BME280;23175;-33.706;151.094;2024-01-30T03:16:17;99597.97;;;21.52;57.25
37291;BME280;23175;-33.706;151.094;2024-01-30T03:18:47;99604.09;;;20.61;59.30
37291;BME280;23175;-33.706;151.094;2024-01-30T03:21:17;99601.62;;;20.69;59.89
37291;BME280;23175;-33.706;151.094;2024-01-30T03:23:46;99595.03;;;21.01;59.47
37291;BME280;23175;-33.706;151.094;2024-01-30T03:26:16;99592.42;;;22.41;55.64
37291;BME280;23175;-33.706;151.094;2024-01-30T03:28:46;99598.74;;;22.82;55.95
37291;BME280;23175;-33.706;151.094;2024-01-30T03:31:17;99599.63;;;22.70;54.63
37291;BME280;23175;-33.706;151.094;2024-01-30T03:33:47;99592.31;;;22.20;55.76
37291;BME280;23175;-33.706;151.094;2024-01-30T03:36:18;99587.62;;;21.65;56.85
37291;BME280;23175;-33.706;151.094;2024-01-30T03:38:47;99583.69;;;21.30;57.30
37291;BME280;23175;-33.706;151.094;2024-01-30T03:41:17;99581.74;;;20.55;59.82
37291;BME280;23175;-33.706;151.094;2024-01-30T03:43:48;99575.29;;;22.01;56.56
37291;BME280;23175;-33.706;151.094;2024-01-30T03:46:18;99583.30;;;21.24;58.46
37291;BME280;23175;-33.706;151.094;2024-01-30T03:48:48;99581.42;;;21.04;59.12
37291;BME280;23175;-33.706;151.094;2024-01-30T03:51:19;99572.65;;;22.78;56.26
37291;BME280;23175;-33.706;151.094;2024-01-30T03:53:50;99565.50;;;22.58;55.58
37291;BME280;23175;-33.706;151.094;2024-01-30T03:56:20;99564.26;;;22.07;57.25
37291;BME280;23175;-33.706;151.094;2024-01-30T03:58:50;99560.70;;;21.35;57.86
37291;BME280;23175;-33.706;151.094;2024-01-30T04:01:20;99561.61;;;21.57;58.18
37291;BME280;23175;-33.706;151.094;2024-01-30T04:03:50;99564.21;;;22.53;55.34
37291;BME280;23175;-33.706;151.094;2024-01-30T04:06:21;99561.13;;;22.35;55.62
37291;BME280;23175;-33.706;151.094;2024-01-30T04:08:51;99556.57;;;20.84;58.95
37291;BME280;23175;-33.706;151.094;2024-01-30T04:11:21;99548.13;;;22.33;56.09
37291;BME280;23175;-33.706;151.094;2024-01-30T04:13:51;99554.76;;;22.48;56.82
37291;BME280;23175;-33.706;151.094;2024-01-30T04:16:22;99553.68;;;20.92;58.63
37291;BME280;23175;-33.706;151.094;2024-01-30T04:18:53;99549.95;;;22.31;56.29
37291;BME280;23175;-33.706;151.094;2024-01-30T04:21:23;99550.90;;;21.22;55.72
37291;BME280;23175;-33.706;151.094;2024-01-30T04:23:54;99550.27;;;23.37;53.78
37291;BME280;23175;-33.706;151.094;2024-01-30T04:26:24;99549.08;;;22.34;55.52
37291;BME280;23175;-33.706;151.094;2024-01-30T04:28:54;99551.36;;;22.58;56.20
37291;BME280;23175;-33.706;151.094;2024-01-30T04:31:24;99542.63;;;22.47;55.37
37291;BME280;23175;-33.706;151.094;2024-01-30T04:33:54;99533.14;;;23.48;53.22
37291;BME280;23175;-33.706;151.094;2024-01-30T04:36:24;99532.41;;;21.50;57.37
37291;BME280;23175;-33.706;151.094;2024-01-30T04:38:55;99534.43;;;22.33;55.05
37291;BME280;23175;-33.706;151.094;2024-01-30T04:41:25;99532.22;;;20.33;58.44
37291;BME280;23175;-33.706;151.094;2024-01-30T04:43:56;99522.07;;;23.64;52.97
37291;BME280;23175;-33.706;151.094;2024-01-30T04:46:26;99523.14;;;20.86;57.82
37291;BME280;23175;-33.706;151.094;2024-01-30T04:48:56;99522.02;;;23.02;54.11
37291;BME280;23175;-33.706;151.094;2024-01-30T04:51:26;99524.34;;;21.53;56.69
37291;BME280;23175;-33.706;151.094;2024-01-30T04:53:57;99517.70;;;21.86;56.35
37291;BME280;23175;-33.706;151.094;2024-01-30T04:56:27;99518.97;;;19.87;60.74
37291;BME280;23175;-33.706;151.094;2024-01-30T04:58:56;99514.64;;;20.91;58.05
37291;BME280;23175;-33.706;151.094;2024-01-30T05:01:26;99512.46;;;20.49;59.63
37291;BME280;23175;-33.706;151.094;2024-01-30T05:03:57;99503.55;;;20.90;59.00
37291;BME280;23175;-33.706;151.094;2024-01-30T05:06:27;99493.84;;;22.61;55.84
37291;BME280;23175;-33.706;151.094;2024-01-30T05:08:58;99486.21;;;21.11;58.72
37291;BME280;23175;-33.706;151.094;2024-01-30T05:11:28;99486.73;;;23.67;54.17
37291;BME280;23175;-33.706;151.094;2024-01-30T05:13:58;99492.98;;;22.73;54.60
37291;BME280;23175;-33.706;151.094;2024-01-30T05:16:29;99493.90;;;21.16;57.89
37291;BME280;23175;-33.706;151.094;2024-01-30T05:18:59;99489.66;;;22.16;55.60
37291;BME280;23175;-33.706;151.094;2024-01-30T05:21:29;99489.67;;;22.19;56.10
37291;BME280;23175;-33.706;151.094;2024-01-30T05:23:59;99486.52;;;20.66;58.87
37291;BME280;23175;-33.706;151.094;2024-01-30T05:26:29;99485.67;;;23.51;53.18
37291;BME280;23175;-33.706;151.094;2024-01-30T05:29:04;99483.40;;;22.45;53.62
37291;BME280;23175;-33.706;151.094;2024-01-30T05:31:34;99480.82;;;23.43;52.19
37291;BME280;23175;-33.706;151.094;2024-01-30T05:34:04;99475.49;;;22.03;53.99
37291;BME280;23175;-33.706;151.094;2024-01-30T05:36:34;99465.62;;;23.87;52.27
37291;BME280;23175;-33.706;151.094;2024-01-30T05:39:05;99467.20;;;23.01;54.32
37291;BME280;23175;-33.706;151.094;2024-01-30T05:41:34;99467.69;;;22.03;54.97
37291;BME280;23175;-33.706;151.094;2024-01-30T05:44:05;99461.80;;;22.39;54.01
37291;BME280;23175;-33.706;151.094;2024-01-30T05:46:37;99461.78;;;24.47;51.22
37291;BME280;23175;-33.706;151.094;2024-01-30T05:49:08;99451.69;;;22.32;54.38
37291;BME280;23175;-33.706;151.094;2024-01-30T05:51:37;99452.06;;;21.96;56.61
37291;BME280;23175;-33.706;151.094;2024-01-30T05:54:07;99446.20;;;24.03;51.81
37291;BME280;23175;-33.706;151.094;2024-01-30T05:56:37;99447.31;;;23.30;52.24
37291;BME280;23175;-33.706;151.094;2024-01-30T05:59:07;99444.00;;;21.70;55.36
37291;BME280;23175;-33.706;151.094;2024-01-30T06:01:37;99444.17;;;22.75;54.24
37291;BME280;23175;-33.706;151.094;2024-01-30T06:04:08;99441.51;;;21.32;56.89
37291;BME280;23175;-33.706;151.094;2024-01-30T06:06:37;99444.35;;;25.26;49.49
37291;BME280;23175;-33.706;151.094;2024-01-30T06:09:07;99443.64;;;25.07;50.13
37291;BME280;23175;-33.706;151.094;2024-01-30T06:11:38;99440.76;;;22.30;55.22
37291;BME280;23175;-33.706;151.094;2024-01-30T06:14:08;99443.11;;;24.42;51.32
37291;BME280;23175;-33.706;151.094;2024-01-30T06:16:38;99438.72;;;22.31;54.97
37291;BME280;23175;-33.706;151.094;2024-01-30T06:19:08;99443.18;;;21.62;55.78
37291;BME280;23175;-33.706;151.094;2024-01-30T06:21:38;99446.27;;;23.04;52.76
37291;BME280;23175;-33.706;151.094;2024-01-30T06:24:08;99445.61;;;23.35;52.72
37291;BME280;23175;-33.706;151.094;2024-01-30T06:26:39;99451.54;;;23.58;53.11
37291;BME280;23175;-33.706;151.094;2024-01-30T06:29:08;99452.76;;;22.46;54.78
37291;BME280;23175;-33.706;151.094;2024-01-30T06:31:42;99461.26;;;22.07;54.99
37291;BME280;23175;-33.706;151.094;2024-01-30T06:34:13;99463.94;;;22.80;53.60
37291;BME280;23175;-33.706;151.094;2024-01-30T06:36:44;99466.21;;;23.50;53.06
37291;BME280;23175;-33.706;151.094;2024-01-30T06:39:14;99473.14;;;22.57;54.56
37291;BME280;23175;-33.706;151.094;2024-01-30T06:41:43;99474.38;;;22.91;53.74
37291;BME280;23175;-33.706;151.094;2024-01-30T06:44:13;99477.80;;;22.12;55.52
37291;BME280;23175;-33.706;151.094;2024-01-30T06:46:44;99476.74;;;23.97;51.55
37291;BME280;23175;-33.706;151.094;2024-01-30T06:49:14;99483.14;;;22.23;54.45
37291;BME280;23175;-33.706;151.094;2024-01-30T06:51:44;99479.60;;;23.76;51.82
37291;BME280;23175;-33.706;151.094;2024-01-30T06:54:14;99479.70;;;21.71;54.59
37291;BME280;23175;-33.706;151.094;2024-01-30T06:56:43;99482.85;;;24.38;51.04
37291;BME280;23175;-33.706;151.094;2024-01-30T06:59:14;99485.16;;;20.50;57.93
37291;BME280;23175;-33.706;151.094;2024-01-30T07:01:43;99477.29;;;23.42;52.53
37291;BME280;23175;-33.706;151.094;2024-01-30T07:04:14;99475.68;;;21.13;57.06
37291;BME280;23175;-33.706;151.094;2024-01-30T07:06:44;99471.10;;;21.87;55.58
37291;BME280;23175;-33.706;151.094;2024-01-30T07:09:14;99469.50;;;21.34;56.32
37291;BME280;23175;-33.706;151.094;2024-01-30T07:11:45;99470.46;;;21.87;55.41
37291;BME280;23175;-33.706;151.094;2024-01-30T07:14:14;99471.73;;;22.73;54.36
37291;BME280;23175;-33.706;151.094;2024-01-30T07:16:44;99476.31;;;23.41;52.27
37291;BME280;23175;-33.706;151.094;2024-01-30T07:19:14;99480.80;;;22.26;53.42
37291;BME280;23175;-33.706;151.094;2024-01-30T07:21:44;99478.30;;;21.91;55.15
37291;BME280;23175;-33.706;151.094;2024-01-30T07:24:13;99475.77;;;23.19;52.68
37291;BME280;23175;-33.706;151.094;2024-01-30T07:26:43;99478.51;;;22.33;53.35
37291;BME280;23175;-33.706;151.094;2024-01-30T07:29:14;99473.19;;;21.85;54.79
37291;BME280;23175;-33.706;151.094;2024-01-30T07:31:45;99469.18;;;22.58;53.36
37291;BME280;23175;-33.706;151.094;2024-01-30T07:34:16;99471.81;;;20.75;57.39
37291;BME280;23175;-33.706;151.094;2024-01-30T07:36:46;99472.21;;;22.20;55.40
37291;BME280;23175;-33.706;151.094;2024-01-30T07:39:16;99469.58;;;22.30;55.59
37291;BME280;23175;-33.706;151.094;2024-01-30T07:41:46;99473.29;;;22.15;55.39
37291;BME280;23175;-33.706;151.094;2024-01-30T07:44:16;99479.98;;;20.12;59.10
37291;BME280;23175;-33.706;151.094;2024-01-30T07:46:46;99483.82;;;21.87;56.11
37291;BME280;23175;-33.706;151.094;2024-01-30T07:49:17;99487.47;;;20.28;58.34
37291;BME280;23175;-33.706;151.094;2024-01-30T07:51:47;99491.47;;;20.69;58.93
37291;BME280;23175;-33.706;151.094;2024-01-30T07:54:16;99494.67;;;20.92;58.02
37291;BME280;23175;-33.706;151.094;2024-01-30T07:56:46;99493.62;;;21.81;55.91
37291;BME280;23175;-33.706;151.094;2024-01-30T07:59:17;99494.42;;;22.80;53.87
37291;BME280;23175;-33.706;151.094;2024-01-30T08:01:47;99497.42;;;21.32;57.40
37291;BME280;23175;-33.706;151.094;2024-01-30T08:04:16;99491.61;;;22.36;54.77
37291;BME280;23175;-33.706;151.094;2024-01-30T08:06:46;99492.08;;;20.40;58.63
37291;BME280;23175;-33.706;151.094;2024-01-30T08:09:16;99488.67;;;21.69;55.67
37291;BME280;23175;-33.706;151.094;2024-01-30T08:11:46;99484.60;;;22.36;54.61
37291;BME280;23175;-33.706;151.094;2024-01-30T08:14:16;99493.34;;;22.61;54.34
37291;BME280;23175;-33.706;151.094;2024-01-30T08:16:46;99495.04;;;22.06;54.85
37291;BME280;23175;-33.706;151.094;2024-01-30T08:19:16;99492.86;;;22.63;54.58
37291;BME280;23175;-33.706;151.094;2024-01-30T08:21:47;99489.78;;;21.61;56.08
37291;BME280;23175;-33.706;151.094;2024-01-30T08:24:17;99486.80;;;23.38;52.89
37291;BME280;23175;-33.706;151.094;2024-01-30T08:26:47;99490.97;;;21.55;56.23
37291;BME280;23175;-33.706;151.094;2024-01-30T08:29:17;99499.57;;;21.99;55.47
37291;BME280;23175;-33.706;151.094;2024-01-30T08:31:46;99501.81;;;24.39;52.17
37291;BME280;23175;-33.706;151.094;2024-01-30T08:34:16;99507.01;;;23.47;52.68
37291;BME280;23175;-33.706;151.094;2024-01-30T08:36:46;99507.24;;;22.02;56.00
37291;BME280;23175;-33.706;151.094;2024-01-30T08:39:17;99508.55;;;22.00;55.80
37291;BME280;23175;-33.706;151.094;2024-01-30T08:41:48;99508.60;;;21.90;55.60
37291;BME280;23175;-33.706;151.094;2024-01-30T08:44:18;99507.38;;;20.36;57.94
37291;BME280;23175;-33.706;151.094;2024-01-30T08:46:48;99503.99;;;22.89;53.94
37291;BME280;23175;-33.706;151.094;2024-01-30T08:49:19;99497.94;;;22.46;54.50
37291;BME280;23175;-33.706;151.094;2024-01-30T08:51:49;99495.78;;;23.78;52.11
37291;BME280;23175;-33.706;151.094;2024-01-30T08:54:20;99496.83;;;22.66;53.49
37291;BME280;23175;-33.706;151.094;2024-01-30T08:56:55;99497.35;;;22.01;55.30
37291;BME280;23175;-33.706;151.094;2024-01-30T08:59:25;99499.62;;;21.25;56.69
37291;BME280;23175;-33.706;151.094;2024-01-30T09:01:55;99501.48;;;24.10;51.28
37291;BME280;23175;-33.706;151.094;2024-01-30T09:04:25;99506.33;;;23.20;53.39
37291;BME280;23175;-33.706;151.094;2024-01-30T09:06:55;99506.63;;;21.95;55.38
37291;BME280;23175;-33.706;151.094;2024-01-30T09:09:25;99508.39;;;20.22;57.62
37291;BME280;23175;-33.706;151.094;2024-01-30T09:11:55;99504.29;;;23.17;53.18
37291;BME280;23175;-33.706;151.094;2024-01-30T09:14:25;99504.58;;;22.91;52.83
37291;BME280;23175;-33.706;151.094;2024-01-30T09:16:55;99508.57;;;24.70;50.50
37291;BME280;23175;-33.706;151.094;2024-01-30T09:19:25;99507.44;;;22.30;53.84
37291;BME280;23175;-33.706;151.094;2024-01-30T09:21:55;99507.96;;;21.55;55.57
37291;BME280;23175;-33.706;151.094;2024-01-30T09:24:27;99506.37;;;23.26;52.78
37291;BME280;23175;-33.706;151.094;2024-01-30T09:26:57;99504.53;;;22.40;54.08
37291;BME280;23175;-33.706;151.094;2024-01-30T09:29:27;99506.25;;;24.44;50.38
37291;BME280;23175;-33.706;151.094;2024-01-30T09:31:57;99513.80;;;20.52;57.52
37291;BME280;23175;-33.706;151.094;2024-01-30T09:34:28;99511.24;;;23.74;51.98
37291;BME280;23175;-33.706;151.094;2024-01-30T09:36:58;99512.23;;;22.09;54.04
37291;BME280;23175;-33.706;151.094;2024-01-30T09:39:29;99510.65;;;23.00;53.64
37291;BME280;23175;-33.706;151.094;2024-01-30T09:42:08;99508.81;;;22.81;52.73
37291;BME280;23175;-33.706;151.094;2024-01-30T09:44:45;99514.49;;;22.89;53.52
37291;BME280;23175;-33.706;151.094;2024-01-30T09:47:18;99515.43;;;21.42;55.60
37291;BME280;23175;-33.706;151.094;2024-01-30T09:49:48;99519.53;;;23.77;51.31
37291;BME280;23175;-33.706;151.094;2024-01-30T09:52:19;99524.95;;;22.08;54.96
37291;BME280;23175;-33.706;151.094;2024-01-30T09:54:51;99524.53;;;21.72;55.10
37291;BME280;23175;-33.706;151.094;2024-01-30T09:57:21;99522.07;;;22.75;54.53
37291;BME280;23175;-33.706;151.094;2024-01-30T09:59:51;99522.45;;;24.11;52.49
37291;BME280;23175;-33.706;151.094;2024-01-30T10:02:22;99524.18;;;24.27;51.52
37291;BME280;23175;-33.706;151.094;2024-01-30T10:04:53;99528.92;;;22.50;55.05
37291;BME280;23175;-33.706;151.094;2024-01-30T10:07:24;99530.20;;;24.59;51.84
37291;BME280;23175;-33.706;151.094;2024-01-30T10:09:54;99532.83;;;21.07;57.46
37291;BME280;23175;-33.706;151.094;2024-01-30T10:12:26;99525.92;;;23.26;53.86
37291;BME280;23175;-33.706;151.094;2024-01-30T10:14:57;99521.16;;;23.08;54.23
37291;BME280;23175;-33.706;151.094;2024-01-30T10:17:27;99522.56;;;22.55;55.41
37291;BME280;23175;-33.706;151.094;2024-01-30T10:19:58;99528.08;;;24.15;52.59
37291;BME280;23175;-33.706;151.094;2024-01-30T10:22:27;99535.42;;;24.88;51.68
37291;BME280;23175;-33.706;151.094;2024-01-30T10:24:58;99539.93;;;22.22;55.22
37291;BME280;23175;-33.706;151.094;2024-01-30T10:27:28;99541.54;;;23.05;54.79
37291;BME280;23175;-33.706;151.094;2024-01-30T10:29:58;99531.42;;;23.08;54.18
37291;BME280;23175;-33.706;151.094;2024-01-30T10:32:28;99526.26;;;23.28;54.96
37291;BME280;23175;-33.706;151.094;2024-01-30T10:34:59;99522.79;;;23.92;53.24
37291;BME280;23175;-33.706;151.094;2024-01-30T10:37:31;99528.16;;;23.08;55.50
37291;BME280;23175;-33.706;151.094;2024-01-30T10:40:03;99533.61;;;24.37;51.61
37291;BME280;23175;-33.706;151.094;2024-01-30T10:42:35;99542.04;;;24.17;52.92
37291;BME280;23175;-33.706;151.094;2024-01-30T10:45:09;99545.47;;;25.10;51.08
37291;BME280;23175;-33.706;151.094;2024-01-30T10:47:42;99549.29;;;25.24;50.88
37291;BME280;23175;-33.706;151.094;2024-01-30T10:50:12;99551.64;;;24.82;50.94
37291;BME280;23175;-33.706;151.094;2024-01-30T10:52:43;99552.36;;;24.39;51.55
37291;BME280;23175;-33.706;151.094;2024-01-30T10:55:15;99551.27;;;24.58;51.35
37291;BME280;23175;-33.706;151.094;2024-01-30T10:57:45;99551.69;;;24.50;51.16
37291;BME280;23175;-33.706;151.094;2024-01-30T11:00:16;99553.86;;;24.21;52.13
37291;BME280;23175;-33.706;151.094;2024-01-30T11:02:48;99556.89;;;22.62;55.02
37291;BME280;23175;-33.706;151.094;2024-01-30T11:05:27;99557.78;;;23.51;53.55
37291;BME280;23175;-33.706;151.094;2024-01-30T11:07:57;99559.67;;;22.73;54.17
37291;BME280;23175;-33.706;151.094;2024-01-30T11:10:27;99562.64;;;24.35;52.68
37291;BME280;23175;-33.706;151.094;2024-01-30T11:12:58;99564.50;;;24.12;51.58
37291;BME280;23175;-33.706;151.094;2024-01-30T11:15:28;99563.10;;;24.16;52.89
37291;BME280;23175;-33.706;151.094;2024-01-30T11:17:57;99563.00;;;23.16;54.05
37291;BME280;23175;-33.706;151.094;2024-01-30T11:20:29;99565.36;;;24.60;52.13
37291;BME280;23175;-33.706;151.094;2024-01-30T11:23:00;99560.87;;;24.20;51.69
37291;BME280;23175;-33.706;151.094;2024-01-30T11:25:29;99557.06;;;25.05;51.31
37291;BME280;23175;-33.706;151.094;2024-01-30T11:28:00;99548.46;;;23.51;53.50
37291;BME280;23175;-33.706;151.094;2024-01-30T11:30:32;99550.41;;;23.39;54.01
37291;BME280;23175;-33.706;151.094;2024-01-30T11:33:07;99548.04;;;24.40;52.07
37291;BME280;23175;-33.706;151.094;2024-01-30T11:35:40;99548.72;;;25.54;50.55
37291;BME280;23175;-33.706;151.094;2024-01-30T11:38:11;99541.35;;;25.15;50.50
37291;BME280;23175;-33.706;151.094;2024-01-30T11:40:43;99541.80;;;25.16;49.95
37291;BME280;23175;-33.706;151.094;2024-01-30T11:43:13;99544.99;;;25.42;49.48
37291;BME280;23175;-33.706;151.094;2024-01-30T11:45:43;99547.33;;;26.28;48.68
37291;BME280;23175;-33.706;151.094;2024-01-30T11:48:14;99547.85;;;25.94;48.71
37291;BME280;23175;-33.706;151.094;2024-01-30T11:50:45;99547.86;;;25.33;48.70
37291;BME280;23175;-33.706;151.094;2024-01-30T11:53:15;99546.31;;;25.83;48.56
37291;BME280;23175;-33.706;151.094;2024-01-30T11:55:51;99541.97;;;26.07;48.21
37291;BME280;23175;-33.706;151.094;2024-01-30T11:58:21;99542.49;;;26.10;48.11
37291;BME280;23175;-33.706;151.094;2024-01-30T12:00:56;99546.79;;;26.12;48.58
37291;BME280;23175;-33.706;151.094;2024-01-30T12:03:26;99546.30;;;25.95;48.54
37291;BME280;23175;-33.706;151.094;2024-01-30T12:05:58;99544.53;;;26.19;48.51
37291;BME280;23175;-33.706;151.094;2024-01-30T12:08:27;99538.79;;;26.03;48.32
37291;BME280;23175;-33.706;151.094;2024-01-30T12:10:58;99537.49;;;25.61;48.51
37291;BME280;23175;-33.706;151.094;2024-01-30T12:13:28;99538.32;;;25.67;48.22
37291;BME280;23175;-33.706;151.094;2024-01-30T12:15:59;99536.50;;;25.53;48.57
37291;BME280;23175;-33.706;151.094;2024-01-30T12:18:28;99535.42;;;25.35;48.79
37291;BME280;23175;-33.706;151.094;2024-01-30T12:21:00;99535.34;;;25.45;48.42
37291;BME280;23175;-33.706;151.094;2024-01-30T12:23:30;99538.33;;;25.76;48.51
37291;BME280;23175;-33.706;151.094;2024-01-30T12:26:00;99537.84;;;25.74;48.57
37291;BME280;23175;-33.706;151.094;2024-01-30T12:28:31;99537.02;;;25.97;48.22
37291;BME280;23175;-33.706;151.094;2024-01-30T12:31:03;99537.42;;;25.77;48.13
37291;BME280;23175;-33.706;151.094;2024-01-30T12:33:33;99535.72;;;26.00;47.87
37291;BME280;23175;-33.706;151.094;2024-01-30T12:36:07;99532.58;;;25.66;48.39
37291;BME280;23175;-33.706;151.094;2024-01-30T12:38:37;99530.32;;;26.38;48.12
37291;BME280;23175;-33.706;151.094;2024-01-30T12:41:09;99527.37;;;25.72;48.22
37291;BME280;23175;-33.706;151.094;2024-01-30T12:43:41;99525.04;;;26.29;48.28
37291;BME280;23175;-33.706;151.094;2024-01-30T12:46:12;99526.40;;;25.81;48.18